Time;durP1;ratioP1;P1;durP2;ratioP2;P2;SDS_P1;SDS_P2;PMS_P1;PMS_P2;Temp;Humidity;BMP_temperature;BMP_pressure;BME280_temperature;BME280_humidity;BME280_pressure;Samples;Min_cycle;Max_cycle;Signal;HPM_P1;HPM_P2
2022/11/30 00:01:19;;;;;;;48.50;23.17;;;8.20;99.90;;;;;;4970086;29;20106;-80
2022/11/30 00:03:46;;;;;;;47.95;22.35;;;8.20;99.90;;;;;;4970503;29;20074;-79
2022/11/30 00:06:15;;;;;;;49.78;22.35;;;8.20;99.90;;;;;;4980103;28;20082;-79
2022/11/30 00:08:42;;;;;;;45.03;22.67;;;8.20;99.90;;;;;;4978192;28;20067;-80
2022/11/30 00:11:11;;;;;;;42.88;20.85;;;8.20;99.90;;;;;;4979321;28;20149;-79
2022/11/30 00:13:38;;;;;;;48.13;23.20;;;8.20;99.90;;;;;;4981492;28;20051;-79
2022/11/30 00:16:06;;;;;;;49.47;23.73;;;8.20;99.90;;;;;;4981497;28;20075;-81
2022/11/30 00:18:32;;;;;;;45.85;22.95;;;8.20;99.90;;;;;;4983654;28;20074;-80
2022/11/30 00:21:00;;;;;;;42.92;21.75;;;8.20;99.90;;;;;;4967299;28;20130;-79
2022/11/30 00:23:35;;;;;;;41.17;20.42;;;8.20;99.90;;;;;;4982304;28;20079;-80
2022/11/30 00:26:17;;;;;;;39.63;20.05;;;8.20;99.90;;;;;;4984351;28;20082;-80
2022/11/30 00:28:44;;;;;;;43.47;21.73;;;8.20;99.90;;;;;;4982031;28;20090;-80
2022/11/30 00:31:13;;;;;;;39.30;21.27;;;8.20;99.90;;;;;;4985446;28;20424;-80
2022/11/30 00:33:41;;;;;;;42.80;22.00;;;8.20;99.90;;;;;;4964081;28;20047;-80
2022/11/30 00:36:11;;;;;;;38.17;20.48;;;8.20;99.90;;;;;;4983546;28;20050;-79
2022/11/30 00:38:37;;;;;;;;;;;8.20;99.90;;;;;;4965538;28;20064;-80
2022/11/30 00:41:04;;;;;;;41.08;18.15;;;8.20;99.90;;;;;;4980125;28;19965;-80
2022/11/30 00:43:31;;;;;;;34.50;19.17;;;8.20;99.90;;;;;;4966017;28;20051;-79
2022/11/30 00:45:58;;;;;;;29.42;17.17;;;8.10;99.90;;;;;;4985650;28;20070;-80
2022/11/30 00:48:25;;;;;;;29.63;16.70;;;8.10;99.90;;;;;;4982837;28;20065;-80
2022/11/30 00:50:52;;;;;;;32.70;16.80;;;8.10;99.90;;;;;;4981018;28;20054;-80
2022/11/30 00:53:19;;;;;;;32.50;18.70;;;8.10;99.90;;;;;;4981928;28;20074;-79
2022/11/30 00:55:47;;;;;;;36.58;19.17;;;8.10;99.90;;;;;;4981784;28;20134;-79
2022/11/30 00:58:14;;;;;;;32.53;17.50;;;8.20;99.90;;;;;;4980089;28;20427;-79
2022/11/30 01:00:41;;;;;;;34.38;19.65;;;8.20;99.90;;;;;;4982328;28;20058;-79
2022/11/30 01:03:08;;;;;;;38.20;20.30;;;8.20;99.90;;;;;;4980482;28;20086;-79
2022/11/30 01:05:35;;;;;;;34.92;19.85;;;8.20;99.90;;;;;;4979471;28;20102;-78
2022/11/30 01:08:05;;;;;;;36.55;21.35;;;8.20;99.90;;;;;;4973565;28;20504;-78
2022/11/30 01:10:36;;;;;;;36.35;19.77;;;8.20;99.90;;;;;;4968344;28;20481;-77
2022/11/30 01:13:03;;;;;;;36.63;20.17;;;8.10;99.90;;;;;;4950522;28;20133;-77
2022/11/30 01:15:34;;;;;;;40.17;22.27;;;8.20;99.90;;;;;;4952452;28;20649;-79
2022/11/30 01:18:01;;;;;;;41.75;20.88;;;8.20;99.90;;;;;;4951157;28;20051;-79
2022/11/30 01:20:27;;;;;;;40.03;20.75;;;8.10;99.90;;;;;;4985461;28;20047;-78
2022/11/30 01:22:54;;;;;;;39.65;20.75;;;8.20;99.90;;;;;;4975637;28;20062;-78
2022/11/30 01:25:21;;;;;;;36.28;19.50;;;8.10;99.90;;;;;;4988932;28;20134;-78
2022/11/30 01:27:49;;;;;;;40.42;19.52;;;8.10;99.90;;;;;;4990097;28;20035;-77
2022/11/30 01:30:16;;;;;;;30.52;15.52;;;8.10;99.90;;;;;;4974557;28;20046;-79
2022/11/30 01:32:43;;;;;;;33.08;14.95;;;8.20;99.90;;;;;;4981166;28;20039;-78
2022/11/30 01:35:10;;;;;;;28.50;15.25;;;8.20;99.90;;;;;;4963621;28;20050;-80
2022/11/30 01:37:37;;;;;;;27.13;14.13;;;8.20;99.90;;;;;;4982884;28;20043;-80
2022/11/30 01:40:04;;;;;;;38.72;18.52;;;8.30;99.90;;;;;;4979220;28;20043;-79
2022/11/30 01:42:31;;;;;;;37.45;18.30;;;8.20;99.90;;;;;;4966819;28;20054;-79
2022/11/30 01:45:01;;;;;;;38.33;19.55;;;8.30;99.90;;;;;;4979512;28;20055;-80
2022/11/30 01:47:38;;;;;;;38.17;19.92;;;8.30;99.90;;;;;;4980906;28;20055;-79
2022/11/30 01:50:07;;;;;;;41.65;20.05;;;8.30;99.90;;;;;;4979003;28;20051;-78
2022/11/30 01:52:36;;;;;;;34.33;18.30;;;8.30;99.90;;;;;;4979061;28;20637;-78
2022/11/30 01:55:05;;;;;;;41.65;19.30;;;8.30;99.90;;;;;;4969711;29;20051;-79
2022/11/30 01:57:37;;;;;;;40.67;20.08;;;8.30;99.90;;;;;;4969224;29;20107;-80
2022/11/30 02:00:11;;;;;;;41.28;20.83;;;8.30;99.90;;;;;;4960605;29;20074;-79
2022/11/30 02:03:04;;;;;;;45.20;20.77;;;8.30;99.90;;;;;;4970496;29;20058;-79
2022/11/30 02:05:34;;;;;;;39.35;19.95;;;8.30;99.90;;;;;;4969528;29;20479;-79
2022/11/30 02:08:01;;;;;;;40.72;20.48;;;8.20;99.90;;;;;;4962121;28;20077;-79
2022/11/30 02:10:31;;;;;;;35.08;18.77;;;8.20;99.90;;;;;;4976565;28;20494;-79
2022/11/30 02:13:07;;;;;;;37.13;20.80;;;8.20;99.90;;;;;;4976631;28;20078;-79
2022/11/30 02:15:53;;;;;;;30.38;17.38;;;8.20;99.90;;;;;;4974716;28;20067;-79
2022/11/30 02:18:31;;;;;;;34.33;17.25;;;8.20;99.90;;;;;;4976506;28;20053;-80
2022/11/30 02:21:09;;;;;;;31.40;17.20;;;8.20;99.90;;;;;;4976013;28;20312;-80
2022/11/30 02:23:58;;;;;;;35.60;18.83;;;8.10;99.90;;;;;;4977347;28;20686;-80
2022/11/30 02:27:10;;;;;;;32.03;17.85;;;8.10;99.90;;;;;;4942056;28;20055;-79
2022/11/30 02:29:54;;;;;;;28.10;16.25;;;8.00;99.90;;;;;;4951884;28;20061;-79
2022/11/30 02:32:29;;;;;;;35.97;19.27;;;8.00;99.90;;;;;;4964653;28;20138;-78
2022/11/30 02:34:58;;;;;;;33.33;18.23;;;7.90;99.90;;;;;;4975644;28;20075;-79
2022/11/30 02:37:27;;;;;;;35.63;19.53;;;7.90;99.90;;;;;;4960106;28;20552;-80
2022/11/30 02:39:54;;;;;;;32.50;18.10;;;7.90;99.90;;;;;;4977526;28;20283;-79
2022/11/30 02:42:20;;;;;;;40.55;20.67;;;7.90;99.90;;;;;;4958344;28;20189;-79
2022/11/30 02:44:50;;;;;;;35.63;20.17;;;7.90;99.90;;;;;;4977322;28;20090;-80
2022/11/30 02:47:54;;;;;;;33.42;19.83;;;7.90;99.90;;;;;;4977232;28;20078;-80
2022/11/30 02:50:26;;;;;;;38.88;20.05;;;7.90;99.90;;;;;;4936658;28;20119;-80
2022/11/30 02:52:53;;;;;;;40.40;22.08;;;7.90;99.90;;;;;;4976737;28;20058;-80
2022/11/30 02:55:20;;;;;;;41.28;21.40;;;7.90;99.90;;;;;;4979058;28;20130;-78
2022/11/30 02:57:47;;;;;;;41.97;22.08;;;7.90;99.90;;;;;;4976895;28;20479;-80
2022/11/30 03:00:15;;;;;;;43.38;20.73;;;7.80;99.90;;;;;;4977621;28;20103;-80
2022/11/30 03:02:42;;;;;;;43.22;23.08;;;7.80;99.90;;;;;;4979587;28;20047;-80
2022/11/30 03:05:09;;;;;;;45.97;21.92;;;7.70;99.90;;;;;;4977693;28;20051;-79
2022/11/30 03:07:36;;;;;;;44.58;23.42;;;7.70;99.90;;;;;;4979557;28;20053;-79
2022/11/30 03:10:03;;;;;;;46.63;23.73;;;7.70;99.90;;;;;;4962456;28;20598;-79
2022/11/30 03:12:30;;;;;;;48.13;23.73;;;7.70;99.90;;;;;;4977149;28;20074;-80
2022/11/30 03:14:57;;;;;;;43.65;22.05;;;7.70;99.90;;;;;;4978396;28;20074;-79
2022/11/30 03:17:24;;;;;;;43.30;23.52;;;7.60;99.90;;;;;;4977333;28;20050;-80
2022/11/30 03:19:50;;;;;;;43.80;22.67;;;7.70;99.90;;;;;;4978030;28;20115;-80
2022/11/30 03:22:17;;;;;;;45.10;22.17;;;7.70;99.90;;;;;;4978581;28;20061;-80
2022/11/30 03:24:44;;;;;;;40.80;22.55;;;7.70;99.90;;;;;;4980331;28;20081;-79
2022/11/30 03:27:11;;;;;;;45.50;21.17;;;7.70;99.90;;;;;;4964753;28;20082;-80
2022/11/30 03:29:38;;;;;;;42.03;21.42;;;7.70;99.90;;;;;;4982734;28;20051;-80
2022/11/30 03:32:05;;;;;;;36.88;19.90;;;7.70;99.90;;;;;;4965873;28;20055;-79
2022/11/30 03:34:32;;;;;;;44.60;18.67;;;7.70;99.90;;;;;;4979264;28;20082;-80
2022/11/30 03:36:58;;;;;;;37.58;18.77;;;7.70;99.90;;;;;;4979061;28;20197;-80
2022/11/30 03:39:25;;;;;;;30.92;16.95;;;7.80;99.90;;;;;;4979399;28;20106;-80
2022/11/30 03:41:52;;;;;;;33.90;16.38;;;7.80;99.90;;;;;;4959909;28;20051;-79
2022/11/30 03:44:19;;;;;;;34.20;17.25;;;7.80;99.90;;;;;;4978924;28;20522;-80
2022/11/30 03:46:45;;;;;;;29.52;16.15;;;7.80;99.90;;;;;;4960141;28;20074;-78
2022/11/30 03:49:12;;;;;;;32.15;17.00;;;7.80;99.90;;;;;;4958317;28;20055;-79
2022/11/30 03:51:39;;;;;;;30.90;17.23;;;7.80;99.90;;;;;;4977205;28;20054;-78
2022/11/30 03:54:06;;;;;;;30.45;16.70;;;7.80;99.90;;;;;;4975044;28;20047;-80
2022/11/30 03:56:32;;;;;;;30.25;17.50;;;7.80;99.90;;;;;;4958207;28;20130;-79
2022/11/30 03:58:59;;;;;;;32.05;17.77;;;7.80;99.90;;;;;;4977832;28;20046;-79
2022/11/30 04:01:26;;;;;;;31.67;18.13;;;7.80;99.90;;;;;;4958578;28;20130;-79
2022/11/30 04:03:53;;;;;;;35.53;19.35;;;7.90;99.90;;;;;;4975583;28;20061;-80
2022/11/30 04:06:20;;;;;;;35.83;20.60;;;7.90;99.90;;;;;;4975902;28;20055;-79
2022/11/30 04:08:48;;;;;;;31.98;18.45;;;7.90;99.90;;;;;;4964998;29;20062;-80
2022/11/30 04:11:14;;;;;;;34.60;18.33;;;7.90;99.90;;;;;;4966407;29;20116;-80
2022/11/30 04:13:42;;;;;;;35.08;19.50;;;7.90;99.90;;;;;;4954858;29;20044;-80
2022/11/30 04:16:09;;;;;;;32.72;18.60;;;7.90;99.90;;;;;;4963796;29;20477;-80
2022/11/30 04:18:36;;;;;;;34.15;20.00;;;7.90;99.90;;;;;;4965958;28;20075;-79
2022/11/30 04:21:03;;;;;;;36.33;19.77;;;7.90;99.90;;;;;;4974478;28;20111;-80
2022/11/30 04:23:33;;;;;;;34.50;18.42;;;7.90;99.90;;;;;;4972902;28;20485;-79
2022/11/30 04:26:04;;;;;;;33.72;18.52;;;7.90;99.90;;;;;;4959728;28;20051;-80
2022/11/30 04:28:32;;;;;;;34.83;19.02;;;7.90;99.90;;;;;;4971877;28;20051;-80
2022/11/30 04:31:00;;;;;;;36.65;19.67;;;7.90;99.90;;;;;;4974570;28;20050;-78
2022/11/30 04:33:27;;;;;;;34.13;20.08;;;7.90;99.90;;;;;;4971760;28;20048;-80
2022/11/30 04:35:56;;;;;;;37.90;19.80;;;7.90;99.90;;;;;;4974431;28;20049;-80
2022/11/30 04:38:24;;;;;;;39.50;20.77;;;7.90;99.90;;;;;;4974955;28;20067;-80
2022/11/30 04:40:52;;;;;;;35.20;19.92;;;7.90;99.90;;;;;;4958342;28;20065;-79
2022/11/30 04:43:19;;;;;;;40.03;20.63;;;7.90;99.90;;;;;;4954614;28;20144;-79
2022/11/30 04:45:46;;;;;;;39.88;20.55;;;7.80;99.90;;;;;;4972099;28;20051;-79
2022/11/30 04:48:14;;;;;;;39.30;21.33;;;7.80;99.90;;;;;;4958602;28;20066;-80
2022/11/30 04:50:41;;;;;;;40.15;21.15;;;7.80;99.90;;;;;;4958631;28;20620;-79
2022/11/30 04:53:08;;;;;;;37.42;20.38;;;7.80;99.90;;;;;;4976865;28;20065;-79
2022/11/30 04:55:37;;;;;;;36.92;21.48;;;7.70;99.90;;;;;;4978669;28;20081;-80
2022/11/30 04:58:05;;;;;;;40.75;20.95;;;7.80;99.90;;;;;;4975403;28;20427;-79
2022/11/30 05:00:32;;;;;;;41.05;21.75;;;7.80;99.90;;;;;;4969579;28;20051;-79
2022/11/30 05:02:59;;;;;;;39.50;20.50;;;7.80;99.90;;;;;;4982298;28;20061;-79
2022/11/30 05:05:26;;;;;;;38.83;21.38;;;7.80;99.90;;;;;;4978691;28;20055;-80
2022/11/30 05:07:57;;;;;;;34.95;20.10;;;7.80;99.90;;;;;;4981935;28;20089;-79
2022/11/30 05:10:25;;;;;;;37.45;19.02;;;7.80;99.90;;;;;;4982013;28;20073;-79
2022/11/30 05:12:52;;;;;;;37.85;20.02;;;7.80;99.90;;;;;;4971960;28;20059;-79
2022/11/30 05:15:19;;;;;;;34.13;19.73;;;7.80;99.90;;;;;;4968723;28;20079;-79
2022/11/30 05:17:46;;;;;;;37.03;20.10;;;7.80;99.90;;;;;;4962448;28;20057;-79
2022/11/30 05:20:13;;;;;;;38.75;21.98;;;7.80;99.90;;;;;;4975755;28;20047;-78
2022/11/30 05:22:40;;;;;;;36.63;20.38;;;7.80;99.90;;;;;;4964094;28;20129;-81
2022/11/30 05:25:07;;;;;;;39.22;20.95;;;7.70;99.90;;;;;;4972541;28;20056;-81
2022/11/30 05:27:34;;;;;;;44.58;21.17;;;7.70;99.90;;;;;;4980415;28;20051;-81
2022/11/30 05:30:02;;;;;;;43.92;21.40;;;7.70;99.90;;;;;;4983019;28;20069;-79
2022/11/30 05:32:28;;;;;;;39.45;21.25;;;7.70;99.90;;;;;;4963201;28;20078;-79
2022/11/30 05:34:55;;;;;;;37.10;19.70;;;7.70;99.90;;;;;;4979352;28;20050;-79
2022/11/30 05:37:22;;;;;;;36.05;19.98;;;7.70;99.90;;;;;;4981312;28;20054;-78
2022/11/30 05:39:49;;;;;;;36.35;19.55;;;7.70;99.90;;;;;;4969121;29;20063;-79
2022/11/30 05:42:16;;;;;;;34.55;19.33;;;7.70;99.90;;;;;;4967301;29;20110;-77
2022/11/30 05:44:42;;;;;;;36.75;20.67;;;7.60;99.90;;;;;;4968500;29;20069;-81
2022/11/30 05:47:09;;;;;;;34.55;19.13;;;7.60;99.90;;;;;;4959355;28;20497;-80
2022/11/30 05:49:36;;;;;;;28.58;17.85;;;7.60;99.90;;;;;;4969719;29;20055;-78
2022/11/30 05:52:03;;;;;;;27.52;16.77;;;7.60;99.90;;;;;;4978195;28;20055;-81
2022/11/30 05:54:30;;;;;;;30.35;17.70;;;7.60;99.90;;;;;;4979549;28;20047;-78
2022/11/30 05:56:56;;;;;;;30.80;16.38;;;7.60;99.90;;;;;;4977460;28;20042;-78
2022/11/30 05:59:23;;;;;;;28.27;16.77;;;7.50;99.90;;;;;;4978367;28;20110;-81
2022/11/30 06:01:53;;;;;;;29.33;16.73;;;7.50;99.90;;;;;;4980469;28;20078;-81
2022/11/30 06:04:21;;;;;;;28.67;16.73;;;7.50;99.90;;;;;;4982603;28;20090;-79
2022/11/30 06:06:48;;;;;;;23.90;15.43;;;7.60;99.90;;;;;;4962631;28;20130;-78
2022/11/30 06:09:15;;;;;;;25.08;15.52;;;7.60;99.90;;;;;;4984740;28;20053;-79
2022/11/30 06:11:42;;;;;;;28.45;16.88;;;7.60;99.90;;;;;;4980107;28;20061;-78
2022/11/30 06:14:08;;;;;;;31.55;16.75;;;7.60;99.90;;;;;;4977978;28;20523;-79
2022/11/30 06:16:39;;;;;;;28.48;15.43;;;7.60;99.90;;;;;;4962318;28;20480;-79
2022/11/30 06:19:06;;;;;;;34.42;18.83;;;7.50;99.90;;;;;;4980604;28;20114;-79
2022/11/30 06:21:33;;;;;;;30.55;18.60;;;7.50;99.90;;;;;;4978606;28;20048;-79
2022/11/30 06:24:00;;;;;;;31.27;17.70;;;7.50;99.90;;;;;;4980595;28;20151;-80
2022/11/30 06:26:27;;;;;;;31.65;18.52;;;7.50;99.90;;;;;;4979150;28;20057;-79
2022/11/30 06:28:53;;;;;;;31.67;17.80;;;7.60;99.90;;;;;;4977631;28;20051;-78
2022/11/30 06:31:20;;;;;;;34.60;17.60;;;7.60;99.90;;;;;;4963725;28;20085;-78
2022/11/30 06:33:47;;;;;;;35.40;18.83;;;7.60;99.90;;;;;;4961313;28;20082;-78
2022/11/30 06:36:20;;;;;;;32.65;19.20;;;7.60;99.90;;;;;;4977277;28;20078;-78
2022/11/30 06:38:46;;;;;;;35.20;19.70;;;7.60;99.90;;;;;;4961839;28;20106;-77
2022/11/30 06:41:13;;;;;;;34.25;18.98;;;7.60;99.90;;;;;;4976347;28;20485;-77
2022/11/30 06:43:40;;;;;;;37.83;19.73;;;7.70;99.90;;;;;;4976624;28;20061;-78
2022/11/30 06:46:07;;;;;;;35.92;19.95;;;7.70;99.90;;;;;;4962042;28;20055;-77
2022/11/30 06:48:34;;;;;;;37.05;19.50;;;7.70;99.90;;;;;;4975774;28;20572;-77
2022/11/30 06:51:05;;;;;;;35.10;19.15;;;7.70;99.90;;;;;;4978134;28;20106;-78
2022/11/30 06:53:32;;;;;;;35.05;19.38;;;7.70;99.90;;;;;;4978638;28;20043;-78
2022/11/30 06:56:03;;;;;;;40.55;21.35;;;7.70;99.90;;;;;;4958980;28;20123;-78
2022/11/30 06:58:37;;;;;;;45.10;22.42;;;7.80;99.90;;;;;;4960760;28;20051;-78
2022/11/30 07:01:06;;;;;;;42.17;22.63;;;7.80;99.90;;;;;;4980972;28;20142;-78
2022/11/30 07:03:32;;;;;;;42.22;23.70;;;7.70;99.90;;;;;;4982566;28;20058;-78
2022/11/30 07:05:59;;;;;;;40.03;21.35;;;7.70;99.90;;;;;;4978213;28;20058;-78
2022/11/30 07:08:26;;;;;;;40.20;20.45;;;7.60;99.90;;;;;;4980444;28;20489;-76
2022/11/30 07:10:52;;;;;;;38.92;19.80;;;7.60;99.90;;;;;;4979956;28;20047;-78
2022/11/30 07:13:19;;;;;;;41.85;20.75;;;7.60;99.90;;;;;;4984351;28;20061;-78
2022/11/30 07:15:46;;;;;;;37.25;21.50;;;7.60;99.90;;;;;;4966147;28;20612;-78
2022/11/30 07:18:13;;;;;;;36.67;20.15;;;7.60;99.90;;;;;;4973989;28;20047;-78
2022/11/30 07:20:39;;;;;;;38.30;20.98;;;7.60;99.90;;;;;;4976602;28;20089;-77
2022/11/30 07:26:05;;;;;;;33.72;18.52;;;7.50;99.90;;;;;;4974053;28;20055;-78
2022/11/30 07:28:37;;;;;;;26.45;16.83;;;7.50;99.90;;;;;;4956690;28;20055;-78
2022/11/30 07:31:22;;;;;;;28.88;16.60;;;7.50;99.90;;;;;;4974573;28;20054;-77
2022/11/30 07:33:49;;;;;;;32.80;17.40;;;7.50;99.90;;;;;;4976390;28;20065;-78
2022/11/30 07:36:18;;;;;;;28.77;17.60;;;7.50;99.90;;;;;;4975861;28;20190;-78
2022/11/30 07:38:45;;;;;;;29.15;16.88;;;7.50;99.90;;;;;;4976552;28;20043;-78
2022/11/30 07:41:12;;;;;;;29.30;16.65;;;7.50;99.90;;;;;;4978926;28;20059;-79
2022/11/30 07:43:39;;;;;;;28.77;17.92;;;7.50;99.90;;;;;;4962805;28;20097;-79
2022/11/30 07:46:06;;;;;;;31.58;19.20;;;7.40;99.90;;;;;;4959510;28;20051;-78
2022/11/30 07:48:34;;;;;;;32.42;18.58;;;7.50;99.90;;;;;;4978561;28;20065;-79
2022/11/30 07:51:02;;;;;;;36.28;17.90;;;7.50;99.90;;;;;;4978037;28;20063;-77
2022/11/30 07:53:30;;;;;;;29.50;17.85;;;7.50;99.90;;;;;;4976901;28;20146;-79
2022/11/30 07:56:05;;;;;;;30.35;18.42;;;7.40;99.90;;;;;;4980158;28;20106;-79
2022/11/30 07:58:32;;;;;;;32.60;17.73;;;7.40;99.90;;;;;;4982521;28;20085;-79
2022/11/30 08:01:07;;;;;;;28.90;17.33;;;7.40;99.90;;;;;;4975825;28;20087;-79
2022/11/30 08:03:35;;;;;;;31.48;17.90;;;7.40;99.90;;;;;;4958642;28;20055;-79
2022/11/30 08:06:08;;;;;;;33.58;18.98;;;7.40;99.90;;;;;;4977558;28;20054;-78
2022/11/30 08:08:37;;;;;;;31.35;16.25;;;7.40;99.90;;;;;;4976398;28;20115;-79
2022/11/30 08:11:06;;;;;;;26.23;16.87;;;7.50;99.90;;;;;;4975963;28;20360;-79
2022/11/30 08:13:33;;;;;;;30.30;17.00;;;7.50;99.90;;;;;;4959669;28;20420;-80
2022/11/30 08:16:01;;;;;;;29.98;17.20;;;7.50;99.90;;;;;;4978242;28;20063;-79
2022/11/30 08:18:28;;;;;;;30.30;16.23;;;7.50;99.90;;;;;;4961438;28;20462;-80
2022/11/30 08:20:57;;;;;;;28.42;17.70;;;7.50;99.90;;;;;;4978944;28;20058;-79
2022/11/30 08:23:24;;;;;;;30.50;17.80;;;7.50;99.90;;;;;;4972618;28;20057;-79
2022/11/30 08:25:50;;;;;;;26.75;16.95;;;7.50;99.90;;;;;;4973139;28;20046;-79
2022/11/30 08:28:17;;;;;;;29.42;17.85;;;7.50;99.90;;;;;;4975102;28;20051;-79
2022/11/30 08:30:44;;;;;;;28.98;16.27;;;7.50;99.90;;;;;;4964017;29;20066;-78
2022/11/30 08:33:11;;;;;;;26.70;16.73;;;7.50;99.90;;;;;;4964206;28;20051;-78
2022/11/30 08:35:37;;;;;;;30.90;16.90;;;7.50;99.90;;;;;;4967137;29;20067;-79
2022/11/30 08:38:04;;;;;;;29.38;17.30;;;7.50;99.90;;;;;;4966919;29;20503;-79
2022/11/30 08:40:31;;;;;;;29.13;16.63;;;7.50;99.90;;;;;;4973101;28;20042;-79
2022/11/30 08:42:58;;;;;;;32.05;18.02;;;7.50;99.90;;;;;;4981198;28;20485;-78
2022/11/30 08:45:25;;;;;;;34.58;18.30;;;7.50;99.90;;;;;;4980116;28;20071;-79
2022/11/30 08:47:53;;;;;;;33.35;17.63;;;7.50;99.90;;;;;;4983871;28;20058;-79
2022/11/30 08:50:20;;;;;;;31.38;18.10;;;7.50;99.90;;;;;;4969411;28;20146;-79
2022/11/30 08:52:46;;;;;;;33.90;17.85;;;7.60;99.90;;;;;;4981660;28;20057;-79
2022/11/30 08:55:13;;;;;;;34.63;19.48;;;7.50;99.90;;;;;;4982461;28;20074;-79
2022/11/30 08:57:40;;;;;;;43.92;22.02;;;7.60;99.90;;;;;;4969636;29;20123;-79
2022/11/30 09:00:07;;;;;;;45.78;23.92;;;7.60;99.90;;;;;;4970583;29;20047;-79
2022/11/30 09:02:35;;;;;;;50.13;23.70;;;7.60;99.90;;;;;;4959805;29;20067;-79
2022/11/30 09:05:02;;;;;;;46.78;23.13;;;7.50;99.90;;;;;;4970170;29;20083;-79
2022/11/30 09:07:29;;;;;;;49.60;23.38;;;7.50;99.90;;;;;;4969282;28;20310;-79
2022/11/30 09:09:55;;;;;;;55.75;23.77;;;7.50;99.90;;;;;;4974396;28;20075;-78
2022/11/30 09:12:22;;;;;;;52.10;22.80;;;7.50;99.90;;;;;;4979770;28;20056;-79
2022/11/30 09:14:49;;;;;;;52.88;24.75;;;7.50;99.90;;;;;;4976319;28;20130;-79
2022/11/30 09:17:23;;;;;;;54.58;25.35;;;7.50;99.90;;;;;;4978566;28;20078;-79
2022/11/30 09:19:50;;;;;;;50.10;23.08;;;7.50;99.90;;;;;;4979654;28;20107;-79
2022/11/30 09:22:17;;;;;;;54.85;24.83;;;7.50;99.90;;;;;;4990624;23;20051;-79
2022/11/30 09:24:43;;;;;;;37.30;20.20;;;7.60;99.90;;;;;;4978356;28;20051;-80
2022/11/30 09:27:11;;;;;;;50.38;23.60;;;7.60;99.90;;;;;;4974477;28;20054;-79
2022/11/30 09:29:39;;;;;;;57.00;23.90;;;7.50;99.90;;;;;;4975186;28;20075;-79
2022/11/30 09:32:05;;;;;;;55.58;22.58;;;7.60;99.90;;;;;;4973483;28;20059;-79
2022/11/30 09:34:32;;;;;;;47.90;23.48;;;7.60;99.90;;;;;;4969671;28;22620;-78
2022/11/30 09:36:59;;;;;;;52.30;23.80;;;7.60;99.90;;;;;;4968833;28;20047;-79
2022/11/30 09:39:26;;;;;;;41.63;21.48;;;7.60;99.90;;;;;;4967432;28;20055;-79
2022/11/30 09:42:13;;;;;;;41.88;21.95;;;7.60;99.90;;;;;;4982594;28;20047;-79
2022/11/30 09:44:58;;;;;;;46.20;21.67;;;7.60;99.90;;;;;;4966866;28;20397;-79
2022/11/30 09:47:37;;;;;;;50.28;22.95;;;7.70;99.90;;;;;;4971404;28;20142;-79
2022/11/30 09:50:19;;;;;;;42.08;20.80;;;7.80;99.90;;;;;;4978124;28;20491;-78
2022/11/30 09:53:00;;;;;;;45.05;20.48;;;7.80;99.90;;;;;;4963623;28;20051;-80
2022/11/30 09:55:31;;;;;;;42.78;20.17;;;7.80;99.90;;;;;;4964875;28;20469;-79
2022/11/30 09:58:02;;;;;;;40.20;20.75;;;7.80;99.90;;;;;;4975906;28;20134;-79
2022/11/30 10:00:29;;;;;;;38.22;20.13;;;7.80;99.90;;;;;;4966451;28;20493;-79
2022/11/30 10:03:00;;;;;;;37.75;20.33;;;7.80;99.90;;;;;;4980303;28;20055;-80
2022/11/30 10:05:46;;;;;;;46.47;21.48;;;7.90;99.90;;;;;;4964059;28;20078;-79
2022/11/30 10:08:26;;;;;;;40.72;19.25;;;7.90;99.90;;;;;;4963035;28;20142;-79
2022/11/30 10:11:09;;;;;;;40.67;20.20;;;8.00;99.90;;;;;;4971084;28;20169;-78
2022/11/30 10:13:54;;;;;;;35.90;19.20;;;8.10;99.90;;;;;;4985763;28;20086;-79
2022/11/30 10:16:24;;;;;;;40.05;20.13;;;8.10;99.90;;;;;;4981755;28;20067;-79
2022/11/30 10:19:18;;;;;;;34.30;18.27;;;8.20;99.90;;;;;;4968046;29;20420;-79
2022/11/30 10:22:06;;;;;;;36.35;18.73;;;8.20;99.90;;;;;;4967979;28;20513;-80
2022/11/30 10:24:45;;;;;;;38.28;19.45;;;8.20;99.90;;;;;;4973391;28;20107;-77
2022/11/30 10:27:17;;;;;;;36.33;18.42;;;8.20;99.90;;;;;;4974498;28;20055;-79
2022/11/30 10:29:44;;;;;;;41.22;19.52;;;8.20;99.90;;;;;;4972925;28;20082;-79
2022/11/30 10:32:20;;;;;;;37.75;18.65;;;8.20;99.90;;;;;;4970914;28;20155;-79
2022/11/30 10:34:52;;;;;;;33.53;18.27;;;8.20;99.90;;;;;;4979913;28;20579;-78
2022/11/30 10:37:28;;;;;;;34.50;17.92;;;8.20;99.90;;;;;;4982587;28;20051;-79
2022/11/30 10:40:08;;;;;;;31.80;16.48;;;8.20;99.90;;;;;;4985321;28;20089;-79
2022/11/30 10:42:44;;;;;;;33.28;16.88;;;8.20;99.90;;;;;;4985205;28;20067;-79
2022/11/30 10:45:13;;;;;;;31.15;15.60;;;8.30;99.90;;;;;;4985105;28;20591;-79
2022/11/30 10:47:49;;;;;;;32.60;16.63;;;8.30;99.90;;;;;;4980574;28;20059;-79
2022/11/30 10:50:16;;;;;;;27.08;15.43;;;8.30;99.90;;;;;;4966894;28;20055;-79
2022/11/30 10:52:56;;;;;;;28.50;15.82;;;8.30;99.90;;;;;;4959785;28;20078;-79
2022/11/30 10:55:30;;;;;;;27.75;14.23;;;8.30;99.90;;;;;;4965224;28;20134;-78
2022/11/30 10:58:20;;;;;;;28.83;15.32;;;8.30;99.90;;;;;;4963619;28;20066;-80
2022/11/30 11:01:04;;;;;;;28.55;14.85;;;8.30;99.90;;;;;;4965938;29;20142;-79
2022/11/30 11:03:31;;;;;;;26.77;14.90;;;8.30;99.90;;;;;;4973132;28;20055;-79
2022/11/30 11:06:21;;;;;;;28.35;14.93;;;8.30;99.90;;;;;;4968480;28;20116;-79
2022/11/30 11:08:48;;;;;;;28.17;15.32;;;8.30;99.90;;;;;;4967283;28;20047;-80
2022/11/30 11:11:26;;;;;;;25.85;13.95;;;8.40;99.90;;;;;;4969152;28;20110;-79
2022/11/30 11:14:08;;;;;;;22.00;10.70;;;8.50;99.90;;;;;;4966751;28;20047;-78
2022/11/30 11:17:03;;;;;;;22.48;12.48;;;8.50;99.90;;;;;;4980906;28;20047;-79
2022/11/30 11:19:38;;;;;;;23.58;12.20;;;8.50;99.90;;;;;;4970114;28;20520;-79
2022/11/30 11:22:06;;;;;;;23.35;11.63;;;8.60;99.90;;;;;;4964809;28;20485;-79
2022/11/30 11:24:33;;;;;;;22.55;12.32;;;8.70;99.90;;;;;;4972411;28;20134;-79
2022/11/30 11:27:00;;;;;;;18.85;10.88;;;8.70;99.90;;;;;;4963770;28;20094;-78
2022/11/30 11:29:31;;;;;;;17.05;10.25;;;8.80;99.90;;;;;;4964764;29;20078;-78
2022/11/30 11:32:26;;;;;;;17.63;10.85;;;8.80;99.90;;;;;;4972798;28;20110;-78
2022/11/30 11:34:52;;;;;;;18.50;10.82;;;8.90;99.90;;;;;;4968236;28;20054;-79
2022/11/30 11:37:27;;;;;;;19.10;12.00;;;8.90;99.90;;;;;;4967399;28;20082;-81
2022/11/30 11:40:15;;;;;;;21.33;10.63;;;8.90;99.90;;;;;;4963561;28;20138;-79
2022/11/30 11:42:46;;;;;;;18.80;11.05;;;8.90;99.90;;;;;;4983388;28;20081;-79
2022/11/30 11:45:17;;;;;;;18.92;11.07;;;8.90;99.90;;;;;;4981547;28;20107;-79
2022/11/30 11:47:44;;;;;;;;;;;8.90;99.90;;;;;;4961417;28;20050;-79
2022/11/30 11:50:11;;;;;;;18.63;10.10;;;8.90;99.90;;;;;;4977856;28;20306;-79
2022/11/30 11:52:38;;;;;;;17.63;10.68;;;8.80;99.90;;;;;;4969146;28;20539;-79
2022/11/30 11:55:13;;;;;;;21.10;10.80;;;8.80;99.90;;;;;;4959253;29;20051;-79
2022/11/30 11:57:43;;;;;;;20.55;10.95;;;8.90;99.90;;;;;;4954902;28;20047;-79
2022/11/30 12:00:17;;;;;;;20.23;10.00;;;8.90;99.90;;;;;;4972289;28;20074;-79
2022/11/30 12:02:50;;;;;;;18.00;9.27;;;8.90;99.90;;;;;;4963847;28;20524;-80
2022/11/30 12:05:29;;;;;;;15.20;8.70;;;8.90;99.90;;;;;;4965390;29;20079;-80
2022/11/30 12:07:59;;;;;;;12.85;8.43;;;8.90;99.90;;;;;;4965195;28;20063;-79
2022/11/30 12:10:42;;;;;;;13.50;7.32;;;8.90;99.90;;;;;;4969489;28;20110;-79
2022/11/30 12:13:25;;;;;;;14.18;7.85;;;8.90;99.90;;;;;;4984941;28;20051;-79
2022/11/30 12:16:10;;;;;;;14.05;7.68;;;8.90;99.90;;;;;;4984211;28;20042;-79
2022/11/30 12:19:16;;;;;;;13.85;7.38;;;8.90;99.90;;;;;;4955151;28;20051;-78
2022/11/30 12:21:55;;;;;;;11.80;7.90;;;8.90;99.90;;;;;;4942186;28;20054;-79
2022/11/30 12:24:43;;;;;;;12.23;7.53;;;8.90;99.90;;;;;;4974110;28;20493;-79
2022/11/30 12:27:23;;;;;;;11.25;7.40;;;8.90;99.90;;;;;;4976151;28;20300;-78
2022/11/30 12:30:08;;;;;;;;;;;8.70;99.90;;;;;;4969130;28;20051;-79
2022/11/30 12:33:05;;;;;;;11.05;7.40;;;8.60;99.90;;;;;;4970950;28;19984;-79
2022/11/30 12:36:00;;;;;;;13.93;8.02;;;8.60;99.90;;;;;;4958343;28;20640;-78
2022/11/30 12:38:57;;;;;;;11.77;7.15;;;8.50;99.90;;;;;;4977812;28;20051;-78
2022/11/30 12:41:24;;;;;;;10.70;7.97;;;8.50;99.90;;;;;;4960996;28;20189;-78
2022/11/30 12:44:00;;;;;;;13.52;7.95;;;8.50;99.90;;;;;;4975132;28;20086;-79
2022/11/30 12:46:37;;;;;;;15.57;8.40;;;8.50;99.90;;;;;;4953417;28;20070;-78
2022/11/30 12:49:20;;;;;;;12.52;7.93;;;8.50;99.90;;;;;;4968905;28;20058;-78
2022/11/30 12:52:38;;;;;;;12.77;7.55;;;8.50;99.90;;;;;;4973347;28;20059;-79
2022/11/30 12:55:26;;;;;;;14.10;7.90;;;8.50;99.90;;;;;;4877382;29;20080;-78
2022/11/30 12:57:58;;;;;;;10.40;7.35;;;8.50;99.90;;;;;;4877408;29;20180;-79
2022/11/30 13:00:38;;;;;;;10.25;6.47;;;8.50;99.90;;;;;;4925209;28;20126;-79